Time;durP1;ratioP1;P1;durP2;ratioP2;P2;SDS_P1;SDS_P2;PMS_P1;PMS_P2;Temp;Humidity;BMP_temperature;BMP_pressure;BME280_temperature;BME280_humidity;BME280_pressure;Samples;Min_cycle;Max_cycle;Signal;HPM_P1;HPM_P2
2022/09/14 00:00:54;;;;;;;35.38;11.18;;;;;;;;;;5004195;28;20445;-65
2022/09/14 00:03:20;;;;;;;33.13;11.20;;;;;;;;;;5006092;28;20489;-65
2022/09/14 00:05:46;;;;;;;36.30;11.38;;;;;;;;;;5001681;28;20026;-65
2022/09/14 00:08:12;;;;;;;34.67;11.48;;;;;;;;;;5009766;28;20022;-65
2022/09/14 00:10:39;;;;;;;30.42;11.43;;;;;;;;;;5000248;28;20096;-65
2022/09/14 00:13:06;;;;;;;31.23;12.57;;;;;;;;;;5002594;28;20038;-65
2022/09/14 00:15:34;;;;;;;40.90;13.65;;;;;;;;;;5007871;28;20026;-65
2022/09/14 00:18:01;;;;;;;48.65;12.88;;;;;;;;;;5011659;28;20083;-65
2022/09/14 00:20:27;;;;;;;35.08;13.18;;;;;;;;;;5012740;28;20037;-65
2022/09/14 00:22:53;;;;;;;39.40;12.50;;;;;;;;;;5012335;28;20038;-65
2022/09/14 00:25:19;;;;;;;33.55;14.20;;;;;;;;;;5012671;28;20052;-65
2022/09/14 00:27:45;;;;;;;40.97;14.63;;;;;;;;;;5012865;28;20080;-65
2022/09/14 00:30:11;;;;;;;40.67;14.52;;;;;;;;;;5018994;28;20033;-65
2022/09/14 00:32:37;;;;;;;50.40;15.60;;;;;;;;;;5003367;28;20046;-65
2022/09/14 00:35:03;;;;;;;40.60;15.57;;;;;;;;;;4992613;28;20033;-65
2022/09/14 00:37:30;;;;;;;33.95;14.40;;;;;;;;;;5006396;28;20530;-65
2022/09/14 00:39:56;;;;;;;39.33;15.10;;;;;;;;;;5001823;28;20034;-65
2022/09/14 00:42:22;;;;;;;45.78;15.43;;;;;;;;;;5000819;28;20031;-65
2022/09/14 00:44:48;;;;;;;48.72;15.63;;;;;;;;;;5004045;28;20570;-65
2022/09/14 00:47:15;;;;;;;47.90;18.92;;;;;;;;;;4995633;28;20121;-65
2022/09/14 00:49:42;;;;;;;49.38;17.58;;;;;;;;;;5000098;28;20022;-65
2022/09/14 00:52:20;;;;;;;40.63;16.08;;;;;;;;;;5017740;28;20112;-65
2022/09/14 00:54:47;;;;;;;42.95;17.17;;;;;;;;;;5021662;28;20030;-65
2022/09/14 00:57:14;;;;;;;49.83;18.80;;;;;;;;;;5000195;28;20534;-64
2022/09/14 00:59:41;;;;;;;51.97;17.30;;;;;;;;;;5015493;28;20026;-65
2022/09/14 01:02:09;;;;;;;38.33;17.00;;;;;;;;;;5014258;28;20025;-65
2022/09/14 01:04:36;;;;;;;60.72;18.92;;;;;;;;;;5013610;28;20113;-65
2022/09/14 01:07:08;;;;;;;42.90;17.65;;;;;;;;;;5011465;28;20083;-65
2022/09/14 01:09:37;;;;;;;47.22;17.70;;;;;;;;;;5011269;28;20544;-65
2022/09/14 01:12:17;;;;;;;52.20;17.75;;;;;;;;;;5013609;28;20041;-65
2022/09/14 01:14:52;;;;;;;45.00;18.92;;;;;;;;;;5013306;28;20080;-65
2022/09/14 01:17:26;;;;;;;46.72;18.67;;;;;;;;;;5001014;28;20038;-65
2022/09/14 01:19:52;;;;;;;50.35;20.08;;;;;;;;;;5009139;28;20113;-65
2022/09/14 01:22:22;;;;;;;45.80;20.80;;;;;;;;;;5001703;28;20034;-65
2022/09/14 01:24:52;;;;;;;52.15;18.27;;;;;;;;;;5010590;28;20128;-65
2022/09/14 01:27:24;;;;;;;54.88;18.08;;;;;;;;;;4999792;28;20415;-65
2022/09/14 01:29:57;;;;;;;49.85;19.10;;;;;;;;;;5009372;28;20026;-65
2022/09/14 01:32:23;;;;;;;48.80;19.17;;;;;;;;;;5006041;28;20026;-65
2022/09/14 01:34:53;;;;;;;52.97;19.20;;;;;;;;;;5011607;28;20037;-65
2022/09/14 01:37:29;;;;;;;45.42;19.17;;;;;;;;;;5003901;28;20053;-65
2022/09/14 01:39:58;;;;;;;45.00;18.30;;;;;;;;;;5008585;28;20506;-65
2022/09/14 01:42:26;;;;;;;49.30;20.52;;;;;;;;;;5003482;28;20018;-64
2022/09/14 01:44:54;;;;;;;57.80;21.13;;;;;;;;;;5010077;28;20029;-65
2022/09/14 01:47:27;;;;;;;49.38;19.85;;;;;;;;;;5013443;28;20022;-65
2022/09/14 01:49:56;;;;;;;51.47;20.25;;;;;;;;;;5003942;28;20590;-65
2022/09/14 01:52:26;;;;;;;54.75;19.35;;;;;;;;;;5005890;28;20036;-65
2022/09/14 01:54:54;;;;;;;50.88;20.98;;;;;;;;;;5001983;28;20391;-65
2022/09/14 01:57:31;;;;;;;52.28;19.38;;;;;;;;;;5011370;28;20378;-65
2022/09/14 02:00:01;;;;;;;53.10;20.90;;;;;;;;;;5001852;28;20037;-65
2022/09/14 02:02:31;;;;;;;54.03;20.80;;;;;;;;;;5005084;28;20034;-65
2022/09/14 02:05:15;;;;;;;50.40;20.05;;;;;;;;;;5010225;28;20120;-65
2022/09/14 02:07:41;;;;;;;46.83;19.58;;;;;;;;;;4996290;28;20030;-65
2022/09/14 02:10:10;;;;;;;46.78;20.65;;;;;;;;;;5003222;28;20053;-65
2022/09/14 02:12:37;;;;;;;44.13;20.42;;;;;;;;;;5010784;28;20030;-65
2022/09/14 02:15:05;;;;;;;56.58;21.10;;;;;;;;;;5016444;28;20057;-65
2022/09/14 02:17:31;;;;;;;55.63;19.90;;;;;;;;;;4998673;28;20044;-65
2022/09/14 02:19:59;;;;;;;46.15;20.52;;;;;;;;;;5014910;28;20398;-65
2022/09/14 02:22:26;;;;;;;47.28;19.90;;;;;;;;;;5014877;28;20413;-65
2022/09/14 02:24:53;;;;;;;53.33;19.60;;;;;;;;;;5014961;28;20491;-65
2022/09/14 02:27:19;;;;;;;42.08;18.33;;;;;;;;;;5013989;28;20033;-65
2022/09/14 02:29:45;;;;;;;52.60;18.60;;;;;;;;;;5014750;28;20018;-65
2022/09/14 02:32:26;;;;;;;51.13;20.15;;;;;;;;;;5014562;28;20088;-65
2022/09/14 02:34:55;;;;;;;49.20;22.20;;;;;;;;;;4999872;28;20038;-65
2022/09/14 02:37:28;;;;;;;48.25;20.60;;;;;;;;;;4998320;28;20037;-65
2022/09/14 02:40:12;;;;;;;49.83;20.23;;;;;;;;;;4999812;28;20030;-65
2022/09/14 02:42:46;;;;;;;51.33;19.23;;;;;;;;;;5003973;28;20026;-65
2022/09/14 02:45:28;;;;;;;50.45;19.20;;;;;;;;;;5007879;28;20026;-65
2022/09/14 02:47:56;;;;;;;46.25;19.00;;;;;;;;;;4995525;28;20026;-65
2022/09/14 02:50:41;;;;;;;40.97;19.63;;;;;;;;;;5001854;28;20080;-65
2022/09/14 02:53:12;;;;;;;48.92;21.35;;;;;;;;;;5008677;28;20041;-65
2022/09/14 02:55:41;;;;;;;48.22;19.27;;;;;;;;;;4998230;28;20053;-65
2022/09/14 02:58:11;;;;;;;50.00;20.10;;;;;;;;;;5008602;28;20030;-65
2022/09/14 03:00:39;;;;;;;50.63;19.73;;;;;;;;;;5005492;28;20042;-65
2022/09/14 03:03:06;;;;;;;56.08;21.33;;;;;;;;;;5000400;28;20415;-64
2022/09/14 03:05:32;;;;;;;52.63;21.48;;;;;;;;;;4998088;28;20085;-65
2022/09/14 03:07:59;;;;;;;45.13;19.75;;;;;;;;;;5009863;28;20113;-65
2022/09/14 03:10:25;;;;;;;57.92;22.00;;;;;;;;;;5002538;28;20072;-65
2022/09/14 03:12:51;;;;;;;52.17;21.00;;;;;;;;;;5002359;28;20396;-65
2022/09/14 03:15:18;;;;;;;49.42;18.63;;;;;;;;;;5007809;28;20075;-65
2022/09/14 03:17:47;;;;;;;42.55;19.27;;;;;;;;;;5015576;28;20478;-65
2022/09/14 03:20:18;;;;;;;47.15;20.60;;;;;;;;;;5007771;28;20057;-65
2022/09/14 03:22:44;;;;;;;44.38;19.92;;;;;;;;;;5003803;28;20061;-65
2022/09/14 03:25:11;;;;;;;37.55;18.27;;;;;;;;;;5000282;28;20031;-65
2022/09/14 03:27:38;;;;;;;38.55;19.25;;;;;;;;;;5008176;28;20157;-65
2022/09/14 03:30:05;;;;;;;44.55;20.63;;;;;;;;;;5008359;28;20026;-65
2022/09/14 03:32:31;;;;;;;41.15;17.95;;;;;;;;;;5011795;28;20041;-65
2022/09/14 03:34:58;;;;;;;35.80;17.25;;;;;;;;;;5010088;28;20065;-65
2022/09/14 03:37:24;;;;;;;42.45;17.98;;;;;;;;;;5012342;28;20474;-65
2022/09/14 03:39:51;;;;;;;42.08;18.33;;;;;;;;;;5007951;28;20034;-65
2022/09/14 03:42:17;;;;;;;47.08;18.23;;;;;;;;;;5007978;28;20034;-65
2022/09/14 03:44:43;;;;;;;47.78;19.90;;;;;;;;;;5009455;28;20041;-65
2022/09/14 03:47:10;;;;;;;54.58;19.98;;;;;;;;;;4998392;28;20101;-65
2022/09/14 03:49:36;;;;;;;39.85;18.95;;;;;;;;;;5012666;28;20030;-65
2022/09/14 03:52:03;;;;;;;43.83;18.35;;;;;;;;;;5009635;28;20025;-65
2022/09/14 03:54:29;;;;;;;41.40;19.92;;;;;;;;;;5007037;28;20042;-65
2022/09/14 03:56:55;;;;;;;48.63;20.02;;;;;;;;;;5004371;28;20041;-65
2022/09/14 03:59:21;;;;;;;49.30;18.67;;;;;;;;;;4998885;28;20030;-65
2022/09/14 04:01:48;;;;;;;39.50;18.80;;;;;;;;;;5009457;28;20040;-65
2022/09/14 04:04:15;;;;;;;46.53;19.13;;;;;;;;;;5013689;28;20026;-65
2022/09/14 04:06:41;;;;;;;44.53;19.63;;;;;;;;;;5010722;28;20041;-65
2022/09/14 04:09:07;;;;;;;39.55;18.23;;;;;;;;;;5012881;28;20034;-65
2022/09/14 04:11:33;;;;;;;54.90;19.42;;;;;;;;;;5010822;28;20028;-65
2022/09/14 04:14:01;;;;;;;49.78;20.83;;;;;;;;;;5007202;28;20030;-65
2022/09/14 04:16:27;;;;;;;45.10;20.02;;;;;;;;;;5005835;28;20036;-65
2022/09/14 04:18:54;;;;;;;46.97;21.27;;;;;;;;;;5010904;28;20490;-65
2022/09/14 04:21:21;;;;;;;40.65;19.10;;;;;;;;;;5007007;28;20026;-65
2022/09/14 04:23:47;;;;;;;46.80;19.98;;;;;;;;;;5009081;28;20121;-65
2022/09/14 04:26:15;;;;;;;37.80;18.38;;;;;;;;;;5007675;28;20036;-65
2022/09/14 04:28:41;;;;;;;45.83;20.55;;;;;;;;;;5000716;28;20506;-65
2022/09/14 04:31:08;;;;;;;35.53;17.77;;;;;;;;;;5010004;28;20494;-64
2022/09/14 04:33:35;;;;;;;40.08;18.23;;;;;;;;;;5010094;28;20044;-64
2022/09/14 04:36:02;;;;;;;44.60;18.75;;;;;;;;;;5004804;28;20613;-64
2022/09/14 04:38:29;;;;;;;46.63;18.45;;;;;;;;;;5004982;28;20131;-64
2022/09/14 04:40:56;;;;;;;43.38;18.15;;;;;;;;;;5005279;28;20049;-64
2022/09/14 04:43:22;;;;;;;44.03;19.48;;;;;;;;;;5009575;28;20029;-64
2022/09/14 04:45:48;;;;;;;50.47;19.48;;;;;;;;;;5010077;28;20038;-64
2022/09/14 04:48:14;;;;;;;52.08;20.10;;;;;;;;;;5018463;28;20428;-64
2022/09/14 04:50:41;;;;;;;93.13;26.35;;;;;;;;;;4996541;28;20398;-64
2022/09/14 04:53:09;;;;;;;70.00;25.95;;;;;;;;;;5007814;28;20067;-64
2022/09/14 04:55:35;;;;;;;63.13;23.90;;;;;;;;;;5005490;28;20026;-64
2022/09/14 04:58:01;;;;;;;55.75;23.25;;;;;;;;;;5009405;28;20040;-65
2022/09/14 05:00:27;;;;;;;50.88;23.77;;;;;;;;;;5003019;28;20058;-65
2022/09/14 05:02:53;;;;;;;59.60;24.75;;;;;;;;;;5007347;28;20026;-64
2022/09/14 05:05:20;;;;;;;51.97;23.27;;;;;;;;;;5010550;28;20087;-64
2022/09/14 05:07:46;;;;;;;52.80;24.73;;;;;;;;;;5004391;28;20045;-65
2022/09/14 05:10:12;;;;;;;65.65;25.10;;;;;;;;;;4994429;28;20049;-65
2022/09/14 05:12:38;;;;;;;51.40;24.35;;;;;;;;;;5004941;28;20034;-64
2022/09/14 05:15:04;;;;;;;55.95;23.67;;;;;;;;;;5001904;28;20398;-65
2022/09/14 05:17:34;;;;;;;57.05;24.10;;;;;;;;;;4998746;28;20557;-65
2022/09/14 05:20:01;;;;;;;57.08;24.10;;;;;;;;;;5006347;28;20409;-64
2022/09/14 05:22:27;;;;;;;56.45;25.35;;;;;;;;;;5001679;28;20030;-64
2022/09/14 05:24:53;;;;;;;52.63;24.25;;;;;;;;;;5007707;28;20041;-64
2022/09/14 05:27:19;;;;;;;54.80;24.40;;;;;;;;;;5007396;28;20038;-64
2022/09/14 05:29:45;;;;;;;57.08;23.55;;;;;;;;;;5012858;28;20072;-64
2022/09/14 05:32:11;;;;;;;54.40;24.17;;;;;;;;;;5010431;28;20533;-64
2022/09/14 05:34:37;;;;;;;53.65;23.88;;;;;;;;;;5008949;28;20037;-64
2022/09/14 05:37:03;;;;;;;53.58;23.48;;;;;;;;;;5003948;28;20460;-64
2022/09/14 05:39:29;;;;;;;50.42;22.63;;;;;;;;;;5011829;28;20386;-64
2022/09/14 05:41:55;;;;;;;51.63;22.33;;;;;;;;;;5012608;28;20117;-64
2022/09/14 05:44:21;;;;;;;50.40;23.00;;;;;;;;;;5011087;28;20118;-64
2022/09/14 05:46:48;;;;;;;60.85;24.08;;;;;;;;;;5010910;28;20442;-64
2022/09/14 05:49:14;;;;;;;59.53;23.25;;;;;;;;;;5010762;28;20030;-64
2022/09/14 05:51:40;;;;;;;52.75;23.60;;;;;;;;;;5013301;28;20501;-64
2022/09/14 05:54:10;;;;;;;51.30;21.67;;;;;;;;;;5015826;28;20038;-64
2022/09/14 05:56:36;;;;;;;54.95;24.83;;;;;;;;;;5009103;28;20061;-64
2022/09/14 05:59:03;;;;;;;61.55;24.60;;;;;;;;;;5008200;28;20105;-64
2022/09/14 06:01:31;;;;;;;59.38;24.38;;;;;;;;;;5013425;28;20029;-63
2022/09/14 06:04:01;;;;;;;52.90;23.27;;;;;;;;;;5006042;28;20022;-63
2022/09/14 06:06:28;;;;;;;50.75;23.90;;;;;;;;;;5009436;28;20592;-63
2022/09/14 06:08:55;;;;;;;67.80;26.65;;;;;;;;;;5012886;28;20035;-64
2022/09/14 06:11:22;;;;;;;61.28;25.10;;;;;;;;;;5003979;28;20023;-63
2022/09/14 06:13:49;;;;;;;56.20;25.77;;;;;;;;;;5005043;28;20109;-63
2022/09/14 06:16:16;;;;;;;63.13;24.95;;;;;;;;;;5011662;28;20141;-64
2022/09/14 06:18:43;;;;;;;68.13;27.08;;;;;;;;;;5009446;28;20034;-63
2022/09/14 06:21:11;;;;;;;62.63;23.38;;;;;;;;;;5006793;28;20490;-63
2022/09/14 06:23:37;;;;;;;59.50;23.77;;;;;;;;;;5008346;28;20494;-63
2022/09/14 06:26:04;;;;;;;56.25;23.00;;;;;;;;;;5010969;28;20033;-64
2022/09/14 06:28:30;;;;;;;50.50;22.05;;;;;;;;;;5004586;28;20032;-64
2022/09/14 06:30:56;;;;;;;52.95;21.83;;;;;;;;;;5004160;28;20180;-68
2022/09/14 06:33:22;;;;;;;52.80;22.08;;;;;;;;;;5007674;28;20025;-68
2022/09/14 06:35:57;;;;;;;59.30;23.52;;;;;;;;;;5007610;28;20030;-68
2022/09/14 06:38:24;;;;;;;56.67;23.17;;;;;;;;;;5006164;28;20021;-68
2022/09/14 06:40:51;;;;;;;54.50;22.23;;;;;;;;;;5009463;28;20130;-68
2022/09/14 06:43:17;;;;;;;54.67;24.00;;;;;;;;;;5005961;28;20037;-68
2022/09/14 06:45:43;;;;;;;49.88;21.65;;;;;;;;;;5008321;28;20021;-68
2022/09/14 06:48:09;;;;;;;56.72;23.13;;;;;;;;;;5002884;28;20026;-68
2022/09/14 06:50:35;;;;;;;45.65;21.65;;;;;;;;;;5004208;28;20167;-68
2022/09/14 06:53:01;;;;;;;47.65;21.85;;;;;;;;;;5016521;28;20029;-68
2022/09/14 06:55:28;;;;;;;48.85;21.50;;;;;;;;;;5007195;28;20025;-68
2022/09/14 06:57:54;;;;;;;48.40;21.13;;;;;;;;;;5009812;28;20029;-68
2022/09/14 07:00:20;;;;;;;46.38;21.45;;;;;;;;;;5008951;28;20092;-68
2022/09/14 07:02:47;;;;;;;47.28;21.08;;;;;;;;;;5008413;28;20038;-68
2022/09/14 07:05:14;;;;;;;44.38;21.42;;;;;;;;;;5011477;28;20026;-68
2022/09/14 07:07:40;;;;;;;39.65;18.38;;;;;;;;;;5003533;28;20516;-68
2022/09/14 07:10:07;;;;;;;42.50;18.95;;;;;;;;;;5003539;28;20053;-68
2022/09/14 07:12:33;;;;;;;38.97;18.70;;;;;;;;;;5005840;28;20109;-68
2022/09/14 07:14:59;;;;;;;35.72;18.95;;;;;;;;;;5016058;28;20018;-68
2022/09/14 07:17:25;;;;;;;36.58;17.75;;;;;;;;;;5006048;28;20475;-68
2022/09/14 07:19:51;;;;;;;33.70;17.65;;;;;;;;;;5011306;28;20029;-68
2022/09/14 07:22:17;;;;;;;30.58;17.15;;;;;;;;;;5010019;28;20022;-68
2022/09/14 07:24:43;;;;;;;37.78;19.05;;;;;;;;;;5007586;28;20026;-68
2022/09/14 07:27:09;;;;;;;31.58;16.88;;;;;;;;;;5008339;28;20053;-68
2022/09/14 07:29:35;;;;;;;33.65;17.75;;;;;;;;;;5007290;28;20096;-68
2022/09/14 07:32:02;;;;;;;34.25;16.85;;;;;;;;;;5009230;28;20042;-68
2022/09/14 07:34:28;;;;;;;37.90;18.30;;;;;;;;;;5007564;28;20342;-68
2022/09/14 07:36:54;;;;;;;38.72;19.02;;;;;;;;;;5007869;28;20025;-68
2022/09/14 07:39:20;;;;;;;36.50;17.30;;;;;;;;;;5007808;28;20486;-68
2022/09/14 07:41:47;;;;;;;33.63;17.83;;;;;;;;;;5008488;28;20033;-67
2022/09/14 07:44:15;;;;;;;38.80;18.20;;;;;;;;;;5007058;28;20026;-68
2022/09/14 07:46:42;;;;;;;38.55;19.00;;;;;;;;;;5012764;28;20045;-68
2022/09/14 07:49:09;;;;;;;38.08;18.42;;;;;;;;;;5009358;28;20029;-68
2022/09/14 07:51:36;;;;;;;36.65;18.65;;;;;;;;;;5012432;28;20100;-68
2022/09/14 07:54:02;;;;;;;34.72;17.40;;;;;;;;;;5011272;28;20600;-68
2022/09/14 07:56:29;;;;;;;33.35;16.20;;;;;;;;;;5012585;28;20422;-68
2022/09/14 07:58:57;;;;;;;33.22;16.95;;;;;;;;;;5002339;28;20029;-68
2022/09/14 08:01:23;;;;;;;33.28;15.55;;;;;;;;;;5009819;28;20152;-68
2022/09/14 08:03:50;;;;;;;31.15;16.02;;;;;;;;;;5003694;28;20041;-68
2022/09/14 08:06:17;;;;;;;31.38;16.33;;;;;;;;;;5003546;28;20181;-68
2022/09/14 08:08:44;;;;;;;35.55;16.63;;;;;;;;;;5000474;28;20131;-68
2022/09/14 08:11:20;;;;;;;30.50;16.77;;;;;;;;;;5005915;28;20033;-68
2022/09/14 08:13:50;;;;;;;35.00;16.75;;;;;;;;;;5006478;28;20049;-68
2022/09/14 08:16:18;;;;;;;41.55;18.13;;;;;;;;;;5004653;28;20437;-68
2022/09/14 08:18:44;;;;;;;55.70;22.40;;;;;;;;;;5002957;28;20030;-68
2022/09/14 08:21:15;;;;;;;50.88;21.85;;;;;;;;;;5003402;28;20040;-68
2022/09/14 08:23:42;;;;;;;65.28;23.02;;;;;;;;;;5007526;28;20026;-68
2022/09/14 08:26:10;;;;;;;62.22;21.58;;;;;;;;;;5006660;28;20033;-68
2022/09/14 08:28:37;;;;;;;80.78;21.98;;;;;;;;;;5003538;28;20030;-68
2022/09/14 08:31:08;;;;;;;61.97;22.25;;;;;;;;;;5000356;28;20927;-68
2022/09/14 08:33:36;;;;;;;87.05;24.63;;;;;;;;;;5004640;28;20038;-68
2022/09/14 08:36:03;;;;;;;65.75;22.48;;;;;;;;;;5000072;28;20022;-68
2022/09/14 08:38:29;;;;;;;85.47;21.23;;;;;;;;;;5004680;28;20203;-68
2022/09/14 08:40:56;;;;;;;78.78;20.75;;;;;;;;;;5002981;28;20030;-68
2022/09/14 08:43:24;;;;;;;67.43;20.40;;;;;;;;;;5008380;28;20030;-68
2022/09/14 08:45:51;;;;;;;61.97;20.75;;;;;;;;;;4998475;28;20039;-68
2022/09/14 08:48:23;;;;;;;65.43;20.80;;;;;;;;;;5001827;28;20038;-68
2022/09/14 08:50:52;;;;;;;48.90;17.00;;;;;;;;;;5008308;28;20037;-68
2022/09/14 08:53:20;;;;;;;60.63;17.75;;;;;;;;;;5005125;28;20121;-68
2022/09/14 08:55:49;;;;;;;49.17;20.50;;;;;;;;;;5007878;28;20113;-68
2022/09/14 08:58:21;;;;;;;75.18;19.67;;;;;;;;;;5004848;28;20041;-68
2022/09/14 09:01:02;;;;;;;69.25;20.10;;;;;;;;;;5003724;28;20117;-68
2022/09/14 09:03:38;;;;;;;84.10;21.45;;;;;;;;;;5002678;28;20170;-68
2022/09/14 09:06:07;;;;;;;65.57;20.38;;;;;;;;;;5007754;28;20042;-68
2022/09/14 09:08:49;;;;;;;59.83;19.83;;;;;;;;;;5006112;28;20018;-68
2022/09/14 09:11:18;;;;;;;70.13;21.45;;;;;;;;;;5000464;28;20503;-68
2022/09/14 09:13:45;;;;;;;63.70;20.60;;;;;;;;;;5008643;28;20087;-68
2022/09/14 09:16:12;;;;;;;86.05;23.08;;;;;;;;;;5007685;28;20311;-68
2022/09/14 09:19:11;;;;;;;67.55;24.42;;;;;;;;;;5002446;28;20038;-68
2022/09/14 09:21:43;;;;;;;71.25;22.35;;;;;;;;;;5003312;28;20042;-67
2022/09/14 09:24:30;;;;;;;68.40;23.20;;;;;;;;;;5003873;28;20029;-68
2022/09/14 09:26:56;;;;;;;59.72;22.05;;;;;;;;;;5007753;28;20089;-68
2022/09/14 09:29:22;;;;;;;65.30;22.33;;;;;;;;;;5001014;28;20021;-68
2022/09/14 09:32:27;;;;;;;63.28;23.25;;;;;;;;;;5004595;28;20104;-68
2022/09/14 09:35:27;;;;;;;54.33;21.10;;;;;;;;;;5000604;28;20042;-68
2022/09/14 09:37:57;;;;;;;58.13;21.75;;;;;;;;;;5000965;28;20042;-68
2022/09/14 09:40:38;;;;;;;57.88;22.50;;;;;;;;;;4998353;28;20030;-68
2022/09/14 09:43:04;;;;;;;52.97;21.40;;;;;;;;;;5019325;28;20034;-68
2022/09/14 09:45:49;;;;;;;51.65;21.42;;;;;;;;;;5005161;28;20034;-68
2022/09/14 09:48:17;;;;;;;53.58;20.40;;;;;;;;;;5008717;28;20029;-68
2022/09/14 09:50:47;;;;;;;57.92;20.27;;;;;;;;;;5007204;28;20068;-68
2022/09/14 09:53:18;;;;;;;67.05;20.80;;;;;;;;;;5006866;28;20488;-68
2022/09/14 09:55:47;;;;;;;68.45;18.65;;;;;;;;;;5002442;28;20623;-68
2022/09/14 09:58:25;;;;;;;72.25;19.38;;;;;;;;;;5006508;28;20457;-68
2022/09/14 10:01:00;;;;;;;83.43;20.45;;;;;;;;;;5005402;28;20121;-68
2022/09/14 10:03:30;;;;;;;80.50;19.55;;;;;;;;;;5015466;28;20037;-68
2022/09/14 10:06:08;;;;;;;77.30;16.35;;;;;;;;;;5005986;28;20069;-68
2022/09/14 10:08:39;;;;;;;70.05;17.27;;;;;;;;;;5006969;28;20037;-68
2022/09/14 10:11:06;;;;;;;75.05;18.83;;;;;;;;;;5007122;28;20040;-68
2022/09/14 10:13:33;;;;;;;86.20;18.73;;;;;;;;;;5005244;28;20026;-68
2022/09/14 10:16:16;;;;;;;84.10;18.42;;;;;;;;;;5004018;28;20041;-68
2022/09/14 10:18:46;;;;;;;84.40;20.38;;;;;;;;;;5010491;28;20048;-68
2022/09/14 10:21:13;;;;;;;68.32;17.70;;;;;;;;;;5006159;28;20058;-68
2022/09/14 10:23:40;;;;;;;95.00;19.35;;;;;;;;;;5013156;28;20022;-68
2022/09/14 10:26:12;;;;;;;104.18;20.20;;;;;;;;;;5002125;28;20088;-69
2022/09/14 10:28:48;;;;;;;89.75;19.73;;;;;;;;;;5014965;28;20114;-68
2022/09/14 10:31:17;;;;;;;76.55;17.80;;;;;;;;;;5008083;28;20390;-69
2022/09/14 10:33:45;;;;;;;84.47;18.85;;;;;;;;;;5009663;28;20025;-69
2022/09/14 10:36:11;;;;;;;81.38;18.65;;;;;;;;;;5008963;28;20038;-69
2022/09/14 10:38:51;;;;;;;70.70;16.63;;;;;;;;;;5008376;28;20144;-69
2022/09/14 10:41:21;;;;;;;73.15;19.27;;;;;;;;;;5007506;28;20494;-69
2022/09/14 10:44:06;;;;;;;75.35;17.63;;;;;;;;;;5005390;28;20048;-68
2022/09/14 10:46:38;;;;;;;79.40;18.20;;;;;;;;;;5004695;28;20022;-68
2022/09/14 10:49:26;;;;;;;75.25;17.50;;;;;;;;;;4994089;28;20031;-68
2022/09/14 10:52:16;;;;;;;68.47;18.48;;;;;;;;;;4998515;28;20041;-68
2022/09/14 10:54:42;;;;;;;70.10;18.52;;;;;;;;;;4993441;28;20045;-69
2022/09/14 10:57:17;;;;;;;70.75;20.13;;;;;;;;;;5000340;28;20041;-68
2022/09/14 10:59:58;;;;;;;76.43;17.05;;;;;;;;;;4999644;28;20036;-68
2022/09/14 11:02:38;;;;;;;65.63;17.90;;;;;;;;;;4999044;28;20030;-68
2022/09/14 11:05:04;;;;;;;66.70;19.33;;;;;;;;;;5002416;28;20076;-68
2022/09/14 11:07:42;;;;;;;57.38;16.05;;;;;;;;;;4997985;28;20087;-68
2022/09/14 11:10:16;;;;;;;61.15;15.50;;;;;;;;;;4998178;28;20453;-68
2022/09/14 11:13:03;;;;;;;57.65;15.18;;;;;;;;;;5002948;28;20030;-68
2022/09/14 11:15:41;;;;;;;58.67;13.40;;;;;;;;;;5001868;28;20124;-69
2022/09/14 11:18:19;;;;;;;52.00;14.98;;;;;;;;;;5000621;28;20034;-69
2022/09/14 11:20:46;;;;;;;50.38;14.75;;;;;;;;;;4999467;28;20034;-69
2022/09/14 11:23:25;;;;;;;59.22;14.73;;;;;;;;;;5011390;28;20104;-69
2022/09/14 11:25:51;;;;;;;65.50;16.48;;;;;;;;;;5013398;28;20033;-69
2022/09/14 11:28:43;;;;;;;50.03;14.27;;;;;;;;;;5011061;28;20021;-70
2022/09/14 11:31:18;;;;;;;52.33;14.60;;;;;;;;;;5004888;28;20046;-68
2022/09/14 11:33:44;;;;;;;54.75;15.70;;;;;;;;;;5010628;28;20044;-68
2022/09/14 11:36:15;;;;;;;59.70;16.17;;;;;;;;;;5003489;28;20690;-67
2022/09/14 11:39:03;;;;;;;63.13;14.68;;;;;;;;;;5014878;28;20029;-68
2022/09/14 11:41:37;;;;;;;59.20;14.70;;;;;;;;;;5002980;28;20061;-68
2022/09/14 11:44:05;;;;;;;49.40;15.48;;;;;;;;;;5004815;28;20030;-67
2022/09/14 11:46:38;;;;;;;57.13;14.48;;;;;;;;;;5007430;28;20033;-67
2022/09/14 11:49:04;;;;;;;;;;;;;;;;;;5012195;28;20030;-67
2022/09/14 11:51:31;;;;;;;58.25;13.68;;;;;;;;;;5003594;28;19924;-67
2022/09/14 11:53:57;;;;;;;70.07;13.90;;;;;;;;;;5001246;28;20080;-67
2022/09/14 11:56:25;;;;;;;66.55;13.85;;;;;;;;;;5007218;28;20036;-67
2022/09/14 11:58:53;;;;;;;83.13;15.43;;;;;;;;;;5004354;28;20045;-67
2022/09/14 12:01:27;;;;;;;92.43;16.23;;;;;;;;;;5007048;28;20037;-67
2022/09/14 12:03:53;;;;;;;98.20;16.70;;;;;;;;;;5014978;28;20079;-67
2022/09/14 12:06:31;;;;;;;105.97;17.85;;;;;;;;;;5002834;28;20057;-67
2022/09/14 12:09:16;;;;;;;77.95;16.73;;;;;;;;;;5006818;28;20049;-67
2022/09/14 12:11:46;;;;;;;101.38;17.77;;;;;;;;;;5009636;28;20038;-67
2022/09/14 12:14:32;;;;;;;98.10;17.27;;;;;;;;;;5015305;28;20056;-67
2022/09/14 12:17:04;;;;;;;107.00;17.48;;;;;;;;;;5002291;28;20104;-67
2022/09/14 12:19:31;;;;;;;97.70;18.17;;;;;;;;;;5006598;28;20692;-67
2022/09/14 12:22:17;;;;;;;99.50;16.50;;;;;;;;;;5010796;28;20036;-69
2022/09/14 12:24:43;;;;;;;80.53;15.73;;;;;;;;;;5001046;28;20111;-68
2022/09/14 12:27:20;;;;;;;85.03;16.15;;;;;;;;;;5002231;28;20099;-68
2022/09/14 12:29:47;;;;;;;75.80;14.35;;;;;;;;;;5004527;28;20459;-68
2022/09/14 12:32:25;;;;;;;64.05;12.85;;;;;;;;;;5005115;28;20109;-67
2022/09/14 12:35:11;;;;;;;82.38;14.65;;;;;;;;;;5008102;28;20030;-68
2022/09/14 12:37:37;;;;;;;89.38;13.43;;;;;;;;;;5009247;28;20036;-64
2022/09/14 12:40:23;;;;;;;66.13;12.45;;;;;;;;;;5005754;28;20129;-64
2022/09/14 12:42:49;;;;;;;82.22;14.57;;;;;;;;;;5005871;28;20025;-64
2022/09/14 12:45:34;;;;;;;65.95;13.10;;;;;;;;;;5006952;28;20041;-64
2022/09/14 12:48:00;;;;;;;67.05;14.75;;;;;;;;;;5003923;28;20045;-64
2022/09/14 12:50:29;;;;;;;62.63;13.82;;;;;;;;;;5007259;28;20045;-64
2022/09/14 12:53:02;;;;;;;57.75;12.38;;;;;;;;;;5007702;28;20462;-64
2022/09/14 12:55:42;;;;;;;59.47;12.68;;;;;;;;;;5010303;28;21444;-64
2022/09/14 12:58:37;;;;;;;59.17;13.13;;;;;;;;;;5003006;28;20026;-64
2022/09/14 13:01:20;;;;;;;43.58;10.05;;;;;;;;;;5002741;28;20107;-64
2022/09/14 13:03:51;;;;;;;42.70;12.10;;;;;;;;;;5006663;28;20054;-64
2022/09/14 13:06:18;;;;;;;40.33;11.93;;;;;;;;;;5006031;28;20025;-64
2022/09/14 13:08:49;;;;;;;49.78;12.80;;;;;;;;;;5004898;28;20022;-64
2022/09/14 13:11:20;;;;;;;43.30;8.82;;;;;;;;;;5006401;28;20549;-64
2022/09/14 13:13:47;;;;;;;29.50;7.18;;;;;;;;;;5000804;28;20022;-64
2022/09/14 13:16:17;;;;;;;34.35;9.07;;;;;;;;;;5009169;28;20103;-64
2022/09/14 13:18:43;;;;;;;36.20;7.55;;;;;;;;;;5009509;28;20022;-64
2022/09/14 13:21:21;;;;;;;36.75;8.48;;;;;;;;;;5007609;28;20029;-64
2022/09/14 13:23:47;;;;;;;41.03;8.80;;;;;;;;;;5003584;28;20072;-64
2022/09/14 13:26:21;;;;;;;29.70;9.55;;;;;;;;;;5005788;28;20025;-64
2022/09/14 13:28:48;;;;;;;27.67;7.65;;;;;;;;;;5007004;28;20030;-64
2022/09/14 13:31:41;;;;;;;34.80;8.38;;;;;;;;;;5009439;28;20028;-64
2022/09/14 13:34:17;;;;;;;24.58;9.07;;;;;;;;;;5002469;28;20049;-64
2022/09/14 13:36:43;;;;;;;36.63;8.35;;;;;;;;;;5004325;28;20080;-64
2022/09/14 13:39:22;;;;;;;22.13;7.55;;;;;;;;;;5003305;28;20073;-64
2022/09/14 13:41:49;;;;;;;30.98;7.57;;;;;;;;;;5011965;28;20046;-64
2022/09/14 13:44:15;;;;;;;29.25;6.68;;;;;;;;;;4998328;28;20100;-64
2022/09/14 13:46:41;;;;;;;17.67;6.18;;;;;;;;;;5004100;28;20034;-64
2022/09/14 13:49:07;;;;;;;24.00;6.22;;;;;;;;;;5004073;28;20789;-64
2022/09/14 13:51:34;;;;;;;22.17;6.18;;;;;;;;;;5001202;28;20030;-64
2022/09/14 13:54:17;;;;;;;17.83;6.20;;;;;;;;;;4999514;28;20430;-64
2022/09/14 13:56:43;;;;;;;16.60;4.15;;;;;;;;;;5002911;28;20482;-64
2022/09/14 13:59:10;;;;;;;14.95;4.05;;;;;;;;;;5003648;28;20057;-64
2022/09/14 14:01:41;;;;;;;16.25;4.35;;;;;;;;;;5011543;28;20025;-64
2022/09/14 14:04:26;;;;;;;14.48;3.85;;;;;;;;;;5009920;28;20025;-64
2022/09/14 14:07:03;;;;;;;11.15;2.85;;;;;;;;;;5006280;28;20554;-64
2022/09/14 14:09:47;;;;;;;16.60;3.33;;;;;;;;;;5010267;28;20124;-64
2022/09/14 14:12:21;;;;;;;15.20;3.90;;;;;;;;;;5009142;28;20034;-64
2022/09/14 14:15:00;;;;;;;18.17;3.70;;;;;;;;;;5005832;28;20026;-64
2022/09/14 14:17:35;;;;;;;14.85;3.17;;;;;;;;;;5009689;28;20026;-64
2022/09/14 14:20:31;;;;;;;16.45;3.92;;;;;;;;;;5012921;28;20034;-64
2022/09/14 14:23:03;;;;;;;32.90;4.75;;;;;;;;;;5007396;28;20029;-64
2022/09/14 14:25:32;;;;;;;17.52;4.68;;;;;;;;;;5010347;28;20047;-64
2022/09/14 14:28:02;;;;;;;16.95;4.70;;;;;;;;;;5011095;28;20030;-64
2022/09/14 14:30:29;;;;;;;22.70;4.85;;;;;;;;;;5007331;28;20038;-64
2022/09/14 14:32:56;;;;;;;20.02;5.18;;;;;;;;;;5009851;28;20041;-64
2022/09/14 14:35:24;;;;;;;18.38;4.85;;;;;;;;;;5009013;28;20112;-64